sensor_id;sensor_type;location;lat;lon;timestamp;P1;P2;P0
73565;PMS5003;61846;52.970;-3.168;2022-09-04T00:01:12;6;5;
73565;PMS5003;61846;52.970;-3.168;2022-09-04T00:03:37;7;6;
73565;PMS5003;61846;52.970;-3.168;2022-09-04T00:06:01;12;6;
73565;PMS5003;61846;52.970;-3.168;2022-09-04T00:08:29;5;5;
73565;PMS5003;61846;52.970;-3.168;2022-09-04T00:10:53;5;5;
73565;PMS5003;61846;52.970;-3.168;2022-09-04T00:13:17;6;6;
73565;PMS5003;61846;52.970;-3.168;2022-09-04T00:15:42;6;4;
73565;PMS5003;61846;52.970;-3.168;2022-09-04T00:18:07;6;6;
73565;PMS5003;61846;52.970;-3.168;2022-09-04T00:20:34;8;7;
73565;PMS5003;61846;52.970;-3.168;2022-09-04T00:22:59;6;6;
73565;PMS5003;61846;52.970;-3.168;2022-09-04T00:25:24;8;6;
73565;PMS5003;61846;52.970;-3.168;2022-09-04T00:27:49;4;4;
73565;PMS5003;61846;52.970;-3.168;2022-09-04T00:30:15;7;7;
73565;PMS5003;61846;52.970;-3.168;2022-09-04T00:32:40;12;6;
73565;PMS5003;61846;52.970;-3.168;2022-09-04T00:35:06;6;5;
73565;PMS5003;61846;52.970;-3.168;2022-09-04T00:37:31;7;6;
73565;PMS5003;61846;52.970;-3.168;2022-09-04T00:39:57;6;6;
73565;PMS5003;61846;52.970;-3.168;2022-09-04T00:42:24;11;8;
73565;PMS5003;61846;52.970;-3.168;2022-09-04T00:44:48;5;5;
73565;PMS5003;61846;52.970;-3.168;2022-09-04T00:49:41;8;8;
73565;PMS5003;61846;52.970;-3.168;2022-09-04T00:52:06;6;5;
73565;PMS5003;61846;52.970;-3.168;2022-09-04T00:54:33;5;5;
73565;PMS5003;61846;52.970;-3.168;2022-09-04T00:56:58;7;6;
73565;PMS5003;61846;52.970;-3.168;2022-09-04T00:59:21;11;8;
73565;PMS5003;61846;52.970;-3.168;2022-09-04T01:01:44;14;10;
73565;PMS5003;61846;52.970;-3.168;2022-09-04T01:04:14;9;7;
73565;PMS5003;61846;52.970;-3.168;2022-09-04T01:06:37;6;6;
73565;PMS5003;61846;52.970;-3.168;2022-09-04T01:09:04;8;7;
73565;PMS5003;61846;52.970;-3.168;2022-09-04T01:11:29;7;7;
73565;PMS5003;61846;52.970;-3.168;2022-09-04T01:13:55;10;10;
73565;PMS5003;61846;52.970;-3.168;2022-09-04T01:16:18;9;9;
73565;PMS5003;61846;52.970;-3.168;2022-09-04T01:18:44;10;9;
73565;PMS5003;61846;52.970;-3.168;2022-09-04T01:21:12;7;6;
73565;PMS5003;61846;52.970;-3.168;2022-09-04T01:23:42;9;9;
73565;PMS5003;61846;52.970;-3.168;2022-09-04T01:26:03;8;8;
73565;PMS5003;61846;52.970;-3.168;2022-09-04T01:28:25;10;10;
73565;PMS5003;61846;52.970;-3.168;2022-09-04T01:30:54;13;11;
73565;PMS5003;61846;52.970;-3.168;2022-09-04T01:33:17;14;9;
73565;PMS5003;61846;52.970;-3.168;2022-09-04T01:35:42;8;7;
73565;PMS5003;61846;52.970;-3.168;2022-09-04T01:38:10;10;10;
73565;PMS5003;61846;52.970;-3.168;2022-09-04T01:40:34;8;8;
73565;PMS5003;61846;52.970;-3.168;2022-09-04T01:42:58;10;9;
73565;PMS5003;61846;52.970;-3.168;2022-09-04T01:45:25;11;10;
73565;PMS5003;61846;52.970;-3.168;2022-09-04T01:50:15;12;9;
73565;PMS5003;61846;52.970;-3.168;2022-09-04T01:52:40;8;8;
73565;PMS5003;61846;52.970;-3.168;2022-09-04T01:55:07;17;11;
73565;PMS5003;61846;52.970;-3.168;2022-09-04T01:57:33;7;6;
73565;PMS5003;61846;52.970;-3.168;2022-09-04T02:00:00;11;10;
73565;PMS5003;61846;52.970;-3.168;2022-09-04T02:02:23;8;8;
73565;PMS5003;61846;52.970;-3.168;2022-09-04T02:04:50;9;9;
73565;PMS5003;61846;52.970;-3.168;2022-09-04T02:07:13;11;9;
73565;PMS5003;61846;52.970;-3.168;2022-09-04T02:09:40;9;9;
73565;PMS5003;61846;52.970;-3.168;2022-09-04T02:12:07;9;9;
73565;PMS5003;61846;52.970;-3.168;2022-09-04T02:14:32;13;12;
73565;PMS5003;61846;52.970;-3.168;2022-09-04T02:16:57;12;9;
73565;PMS5003;61846;52.970;-3.168;2022-09-04T02:19:22;13;10;
73565;PMS5003;61846;52.970;-3.168;2022-09-04T02:21:47;14;11;
73565;PMS5003;61846;52.970;-3.168;2022-09-04T02:24:12;14;11;
73565;PMS5003;61846;52.970;-3.168;2022-09-04T02:26:36;9;9;
73565;PMS5003;61846;52.970;-3.168;2022-09-04T02:29:02;15;11;
73565;PMS5003;61846;52.970;-3.168;2022-09-04T02:31:29;10;10;
73565;PMS5003;61846;52.970;-3.168;2022-09-04T02:33:53;12;9;
73565;PMS5003;61846;52.970;-3.168;2022-09-04T02:36:20;14;12;
73565;PMS5003;61846;52.970;-3.168;2022-09-04T02:38:46;10;9;
73565;PMS5003;61846;52.970;-3.168;2022-09-04T02:41:10;12;10;
73565;PMS5003;61846;52.970;-3.168;2022-09-04T02:43:37;9;9;
73565;PMS5003;61846;52.970;-3.168;2022-09-04T02:46:01;14;14;
73565;PMS5003;61846;52.970;-3.168;2022-09-04T02:48:27;10;10;
73565;PMS5003;61846;52.970;-3.168;2022-09-04T02:50:55;13;12;
73565;PMS5003;61846;52.970;-3.168;2022-09-04T02:53:18;11;11;
73565;PMS5003;61846;52.970;-3.168;2022-09-04T02:55:51;12;10;
73565;PMS5003;61846;52.970;-3.168;2022-09-04T02:58:07;9;9;
73565;PMS5003;61846;52.970;-3.168;2022-09-04T03:00:35;17;13;
73565;PMS5003;61846;52.970;-3.168;2022-09-04T03:02:58;15;15;
73565;PMS5003;61846;52.970;-3.168;2022-09-04T03:05:23;12;10;
73565;PMS5003;61846;52.970;-3.168;2022-09-04T03:07:50;14;12;
73565;PMS5003;61846;52.970;-3.168;2022-09-04T03:10:14;15;15;
73565;PMS5003;61846;52.970;-3.168;2022-09-04T03:12:40;14;12;
73565;PMS5003;61846;52.970;-3.168;2022-09-04T03:15:06;14;13;
73565;PMS5003;61846;52.970;-3.168;2022-09-04T03:17:32;19;16;
73565;PMS5003;61846;52.970;-3.168;2022-09-04T03:19:56;19;16;
73565;PMS5003;61846;52.970;-3.168;2022-09-04T03:22:21;12;12;
73565;PMS5003;61846;52.970;-3.168;2022-09-04T03:27:11;12;12;
73565;PMS5003;61846;52.970;-3.168;2022-09-04T03:29:36;14;14;
73565;PMS5003;61846;52.970;-3.168;2022-09-04T03:32:04;15;15;
73565;PMS5003;61846;52.970;-3.168;2022-09-04T03:34:31;16;14;
73565;PMS5003;61846;52.970;-3.168;2022-09-04T03:36:56;15;13;
73565;PMS5003;61846;52.970;-3.168;2022-09-04T03:39:19;18;15;
73565;PMS5003;61846;52.970;-3.168;2022-09-04T03:41:44;17;17;
73565;PMS5003;61846;52.970;-3.168;2022-09-04T03:44:11;22;15;
73565;PMS5003;61846;52.970;-3.168;2022-09-04T03:46:38;16;15;
73565;PMS5003;61846;52.970;-3.168;2022-09-04T03:49:04;18;14;
73565;PMS5003;61846;52.970;-3.168;2022-09-04T03:51:27;13;12;
73565;PMS5003;61846;52.970;-3.168;2022-09-04T03:53:54;16;13;
73565;PMS5003;61846;52.970;-3.168;2022-09-04T03:56:25;16;15;
73565;PMS5003;61846;52.970;-3.168;2022-09-04T03:58:42;16;14;
73565;PMS5003;61846;52.970;-3.168;2022-09-04T04:01:08;22;19;
73565;PMS5003;61846;52.970;-3.168;2022-09-04T04:03:36;19;16;
73565;PMS5003;61846;52.970;-3.168;2022-09-04T04:06:00;19;18;
73565;PMS5003;61846;52.970;-3.168;2022-09-04T04:08:27;23;18;
73565;PMS5003;61846;52.970;-3.168;2022-09-04T04:10:51;26;21;
73565;PMS5003;61846;52.970;-3.168;2022-09-04T04:13:19;21;20;
73565;PMS5003;61846;52.970;-3.168;2022-09-04T04:15:43;18;17;
73565;PMS5003;61846;52.970;-3.168;2022-09-04T04:18:10;20;19;
73565;PMS5003;61846;52.970;-3.168;2022-09-04T04:20:33;28;24;
73565;PMS5003;61846;52.970;-3.168;2022-09-04T04:23:00;24;21;
73565;PMS5003;61846;52.970;-3.168;2022-09-04T04:25:27;24;20;
73565;PMS5003;61846;52.970;-3.168;2022-09-04T04:27:50;22;19;
73565;PMS5003;61846;52.970;-3.168;2022-09-04T04:30:12;19;19;
73565;PMS5003;61846;52.970;-3.168;2022-09-04T04:32:45;24;24;
73565;PMS5003;61846;52.970;-3.168;2022-09-04T04:35:06;29;23;
73565;PMS5003;61846;52.970;-3.168;2022-09-04T04:37:31;22;22;
73565;PMS5003;61846;52.970;-3.168;2022-09-04T04:39:55;28;25;
73565;PMS5003;61846;52.970;-3.168;2022-09-04T04:42:21;30;24;
73565;PMS5003;61846;52.970;-3.168;2022-09-04T04:44:50;29;23;
73565;PMS5003;61846;52.970;-3.168;2022-09-04T04:47:11;32;27;
73565;PMS5003;61846;52.970;-3.168;2022-09-04T04:49:39;25;25;
73565;PMS5003;61846;52.970;-3.168;2022-09-04T04:52:05;36;28;
73565;PMS5003;61846;52.970;-3.168;2022-09-04T04:54:36;34;28;
73565;PMS5003;61846;52.970;-3.168;2022-09-04T04:56:54;25;23;
73565;PMS5003;61846;52.970;-3.168;2022-09-04T04:59:20;26;22;
73565;PMS5003;61846;52.970;-3.168;2022-09-04T05:01:47;35;30;
73565;PMS5003;61846;52.970;-3.168;2022-09-04T05:04:11;31;26;
73565;PMS5003;61846;52.970;-3.168;2022-09-04T05:06:35;30;23;
73565;PMS5003;61846;52.970;-3.168;2022-09-04T05:09:00;34;28;
73565;PMS5003;61846;52.970;-3.168;2022-09-04T05:11:25;23;21;
73565;PMS5003;61846;52.970;-3.168;2022-09-04T05:13:53;24;22;
73565;PMS5003;61846;52.970;-3.168;2022-09-04T05:16:17;20;19;
73565;PMS5003;61846;52.970;-3.168;2022-09-04T05:18:43;31;23;
73565;PMS5003;61846;52.970;-3.168;2022-09-04T05:21:07;27;23;
73565;PMS5003;61846;52.970;-3.168;2022-09-04T05:23:34;24;23;
73565;PMS5003;61846;52.970;-3.168;2022-09-04T05:25:59;23;23;
73565;PMS5003;61846;52.970;-3.168;2022-09-04T05:28:25;24;22;
73565;PMS5003;61846;52.970;-3.168;2022-09-04T05:30:50;24;23;
73565;PMS5003;61846;52.970;-3.168;2022-09-04T05:33:14;31;21;
73565;PMS5003;61846;52.970;-3.168;2022-09-04T05:35:41;23;22;
73565;PMS5003;61846;52.970;-3.168;2022-09-04T05:38:06;28;22;
73565;PMS5003;61846;52.970;-3.168;2022-09-04T05:40:31;24;23;
73565;PMS5003;61846;52.970;-3.168;2022-09-04T05:43:00;24;23;
73565;PMS5003;61846;52.970;-3.168;2022-09-04T05:45:22;25;21;
73565;PMS5003;61846;52.970;-3.168;2022-09-04T05:47:49;24;21;
73565;PMS5003;61846;52.970;-3.168;2022-09-04T05:50:19;25;23;
73565;PMS5003;61846;52.970;-3.168;2022-09-04T05:52:41;21;18;
73565;PMS5003;61846;52.970;-3.168;2022-09-04T05:55:11;26;22;
73565;PMS5003;61846;52.970;-3.168;2022-09-04T05:57:32;24;22;
73565;PMS5003;61846;52.970;-3.168;2022-09-04T06:00:01;20;20;
73565;PMS5003;61846;52.970;-3.168;2022-09-04T06:02:31;26;22;
73565;PMS5003;61846;52.970;-3.168;2022-09-04T06:04:54;26;23;
73565;PMS5003;61846;52.970;-3.168;2022-09-04T06:07:11;22;18;
73565;PMS5003;61846;52.970;-3.168;2022-09-04T06:09:38;26;19;
73565;PMS5003;61846;52.970;-3.168;2022-09-04T06:12:10;24;22;
73565;PMS5003;61846;52.970;-3.168;2022-09-04T06:14:34;27;18;
73565;PMS5003;61846;52.970;-3.168;2022-09-04T06:16:56;28;23;
73565;PMS5003;61846;52.970;-3.168;2022-09-04T06:19:22;17;16;
73565;PMS5003;61846;52.970;-3.168;2022-09-04T06:21:51;16;16;
73565;PMS5003;61846;52.970;-3.168;2022-09-04T06:24:14;17;16;
73565;PMS5003;61846;52.970;-3.168;2022-09-04T06:26:39;23;18;
73565;PMS5003;61846;52.970;-3.168;2022-09-04T06:29:06;26;18;
73565;PMS5003;61846;52.970;-3.168;2022-09-04T06:31:34;27;21;
73565;PMS5003;61846;52.970;-3.168;2022-09-04T06:33:54;19;18;
73565;PMS5003;61846;52.970;-3.168;2022-09-04T06:36:25;25;22;
73565;PMS5003;61846;52.970;-3.168;2022-09-04T06:38:47;23;18;
73565;PMS5003;61846;52.970;-3.168;2022-09-04T06:41:27;17;15;
73565;PMS5003;61846;52.970;-3.168;2022-09-04T06:43:35;13;13;
73565;PMS5003;61846;52.970;-3.168;2022-09-04T06:46:02;22;18;
73565;PMS5003;61846;52.970;-3.168;2022-09-04T06:48:28;28;18;
73565;PMS5003;61846;52.970;-3.168;2022-09-04T06:50:52;13;13;
73565;PMS5003;61846;52.970;-3.168;2022-09-04T06:53:18;16;11;
73565;PMS5003;61846;52.970;-3.168;2022-09-04T06:55:43;18;15;
73565;PMS5003;61846;52.970;-3.168;2022-09-04T06:58:12;14;14;
73565;PMS5003;61846;52.970;-3.168;2022-09-04T07:00:33;17;16;
73565;PMS5003;61846;52.970;-3.168;2022-09-04T07:03:02;12;12;
73565;PMS5003;61846;52.970;-3.168;2022-09-04T07:05:25;15;13;
73565;PMS5003;61846;52.970;-3.168;2022-09-04T07:07:51;13;11;
73565;PMS5003;61846;52.970;-3.168;2022-09-04T07:10:15;14;11;
73565;PMS5003;61846;52.970;-3.168;2022-09-04T07:12:46;10;10;
73565;PMS5003;61846;52.970;-3.168;2022-09-04T07:17:32;11;9;
73565;PMS5003;61846;52.970;-3.168;2022-09-04T07:20:00;14;12;
73565;PMS5003;61846;52.970;-3.168;2022-09-04T07:24:50;9;9;
73565;PMS5003;61846;52.970;-3.168;2022-09-04T07:27:14;20;12;
73565;PMS5003;61846;52.970;-3.168;2022-09-04T07:29:38;8;8;
73565;PMS5003;61846;52.970;-3.168;2022-09-04T07:32:04;8;8;
73565;PMS5003;61846;52.970;-3.168;2022-09-04T07:34:31;12;9;
73565;PMS5003;61846;52.970;-3.168;2022-09-04T07:36:55;11;9;
73565;PMS5003;61846;52.970;-3.168;2022-09-04T07:39:21;8;8;
73565;PMS5003;61846;52.970;-3.168;2022-09-04T07:41:47;9;8;
73565;PMS5003;61846;52.970;-3.168;2022-09-04T07:44:13;9;8;
73565;PMS5003;61846;52.970;-3.168;2022-09-04T07:46:38;13;9;
73565;PMS5003;61846;52.970;-3.168;2022-09-04T07:49:02;12;8;
73565;PMS5003;61846;52.970;-3.168;2022-09-04T07:51:29;13;9;
73565;PMS5003;61846;52.970;-3.168;2022-09-04T07:56:20;14;10;
73565;PMS5003;61846;52.970;-3.168;2022-09-04T07:58:54;7;7;
73565;PMS5003;61846;52.970;-3.168;2022-09-04T08:01:15;6;4;
73565;PMS5003;61846;52.970;-3.168;2022-09-04T08:03:39;6;6;
73565;PMS5003;61846;52.970;-3.168;2022-09-04T08:06:00;6;6;
73565;PMS5003;61846;52.970;-3.168;2022-09-04T08:08:29;6;6;
73565;PMS5003;61846;52.970;-3.168;2022-09-04T08:10:53;6;6;
73565;PMS5003;61846;52.970;-3.168;2022-09-04T08:13:20;7;5;
73565;PMS5003;61846;52.970;-3.168;2022-09-04T08:15:41;4;4;
73565;PMS5003;61846;52.970;-3.168;2022-09-04T08:18:09;5;5;
73565;PMS5003;61846;52.970;-3.168;2022-09-04T08:20:36;5;5;
73565;PMS5003;61846;52.970;-3.168;2022-09-04T08:22:59;9;7;
73565;PMS5003;61846;52.970;-3.168;2022-09-04T08:25:24;6;5;
73565;PMS5003;61846;52.970;-3.168;2022-09-04T08:27:52;5;5;
73565;PMS5003;61846;52.970;-3.168;2022-09-04T08:30:13;7;7;
73565;PMS5003;61846;52.970;-3.168;2022-09-04T08:32:43;6;6;
73565;PMS5003;61846;52.970;-3.168;2022-09-04T08:35:07;5;5;
73565;PMS5003;61846;52.970;-3.168;2022-09-04T08:37:31;6;5;
73565;PMS5003;61846;52.970;-3.168;2022-09-04T08:39:59;2;2;
73565;PMS5003;61846;52.970;-3.168;2022-09-04T08:47:16;0;0;
73565;PMS5003;61846;52.970;-3.168;2022-09-04T08:56:55;0;0;
73565;PMS5003;61846;52.970;-3.168;2022-09-04T09:01:47;0;0;
73565;PMS5003;61846;52.970;-3.168;2022-09-04T09:06:40;0;0;
73565;PMS5003;61846;52.970;-3.168;2022-09-04T09:11:30;0;0;
73565;PMS5003;61846;52.970;-3.168;2022-09-04T09:14:00;0;0;
73565;PMS5003;61846;52.970;-3.168;2022-09-04T09:16:19;0;0;
73565;PMS5003;61846;52.970;-3.168;2022-09-04T09:18:44;0;0;
73565;PMS5003;61846;52.970;-3.168;2022-09-04T09:21:08;0;0;
73565;PMS5003;61846;52.970;-3.168;2022-09-04T09:23:36;0;0;
73565;PMS5003;61846;52.970;-3.168;2022-09-04T09:26:01;0;0;
73565;PMS5003;61846;52.970;-3.168;2022-09-04T09:30:54;0;0;
73565;PMS5003;61846;52.970;-3.168;2022-09-04T09:38:10;0;0;
73565;PMS5003;61846;52.970;-3.168;2022-09-04T09:40:39;0;0;
73565;PMS5003;61846;52.970;-3.168;2022-09-04T09:43:00;0;0;
73565;PMS5003;61846;52.970;-3.168;2022-09-04T09:45:25;0;0;
73565;PMS5003;61846;52.970;-3.168;2022-09-04T09:50:16;0;0;
73565;PMS5003;61846;52.970;-3.168;2022-09-04T09:52:46;0;0;
73565;PMS5003;61846;52.970;-3.168;2022-09-04T09:57:37;1;0;
73565;PMS5003;61846;52.970;-3.168;2022-09-04T09:59:59;0;0;
73565;PMS5003;61846;52.970;-3.168;2022-09-04T10:04:48;0;0;
73565;PMS5003;61846;52.970;-3.168;2022-09-04T10:09:39;0;0;
73565;PMS5003;61846;52.970;-3.168;2022-09-04T10:12:04;0;0;
73565;PMS5003;61846;52.970;-3.168;2022-09-04T10:14:34;0;0;
73565;PMS5003;61846;52.970;-3.168;2022-09-04T10:19:18;0;0;
73565;PMS5003;61846;52.970;-3.168;2022-09-04T10:26:36;0;0;
73565;PMS5003;61846;52.970;-3.168;2022-09-04T10:31:26;0;0;
73565;PMS5003;61846;52.970;-3.168;2022-09-04T10:33:52;0;0;
73565;PMS5003;61846;52.970;-3.168;2022-09-04T10:36:17;2;1;
73565;PMS5003;61846;52.970;-3.168;2022-09-04T10:38:38;0;0;
73565;PMS5003;61846;52.970;-3.168;2022-09-04T10:41:10;0;0;
73565;PMS5003;61846;52.970;-3.168;2022-09-04T10:45:57;0;0;
73565;PMS5003;61846;52.970;-3.168;2022-09-04T10:48:28;0;0;
73565;PMS5003;61846;52.970;-3.168;2022-09-04T10:53:13;0;0;
73565;PMS5003;61846;52.970;-3.168;2022-09-04T10:55:38;0;0;
73565;PMS5003;61846;52.970;-3.168;2022-09-04T10:58:05;0;0;
73565;PMS5003;61846;52.970;-3.168;2022-09-04T11:00:26;0;0;
73565;PMS5003;61846;52.970;-3.168;2022-09-04T11:05:18;0;0;
73565;PMS5003;61846;52.970;-3.168;2022-09-04T11:07:45;0;0;
73565;PMS5003;61846;52.970;-3.168;2022-09-04T11:10:11;0;0;
73565;PMS5003;61846;52.970;-3.168;2022-09-04T11:15:05;0;0;
73565;PMS5003;61846;52.970;-3.168;2022-09-04T11:17:33;0;0;
73565;PMS5003;61846;52.970;-3.168;2022-09-04T11:19:54;0;0;
73565;PMS5003;61846;52.970;-3.168;2022-09-04T11:27:12;0;0;
73565;PMS5003;61846;52.970;-3.168;2022-09-04T11:29:33;0;0;
73565;PMS5003;61846;52.970;-3.168;2022-09-04T11:32:00;0;0;
73565;PMS5003;61846;52.970;-3.168;2022-09-04T11:36:56;0;0;
73565;PMS5003;61846;52.970;-3.168;2022-09-04T11:41:41;0;0;
73565;PMS5003;61846;52.970;-3.168;2022-09-04T11:44:05;0;0;
73565;PMS5003;61846;52.970;-3.168;2022-09-04T11:46:33;0;0;
73565;PMS5003;61846;52.970;-3.168;2022-09-04T11:49:02;0;0;
73565;PMS5003;61846;52.970;-3.168;2022-09-04T11:51:21;1;1;
73565;PMS5003;61846;52.970;-3.168;2022-09-04T11:53:48;1;1;
73565;PMS5003;61846;52.970;-3.168;2022-09-04T11:56:15;0;0;
73565;PMS5003;61846;52.970;-3.168;2022-09-04T11:58:37;1;1;
73565;PMS5003;61846;52.970;-3.168;2022-09-04T12:00:59;1;1;
73565;PMS5003;61846;52.970;-3.168;2022-09-04T12:03:29;2;1;
73565;PMS5003;61846;52.970;-3.168;2022-09-04T12:05:58;0;0;
73565;PMS5003;61846;52.970;-3.168;2022-09-04T12:08:19;0;0;
73565;PMS5003;61846;52.970;-3.168;2022-09-04T12:10:44;0;0;
73565;PMS5003;61846;52.970;-3.168;2022-09-04T12:13:05;1;1;
73565;PMS5003;61846;52.970;-3.168;2022-09-04T12:18:05;1;1;
73565;PMS5003;61846;52.970;-3.168;2022-09-04T12:22:49;1;1;
73565;PMS5003;61846;52.970;-3.168;2022-09-04T12:25:14;3;1;
73565;PMS5003;61846;52.970;-3.168;2022-09-04T12:30:04;2;1;
73565;PMS5003;61846;52.970;-3.168;2022-09-04T12:32:34;2;1;
73565;PMS5003;61846;52.970;-3.168;2022-09-04T12:34:57;2;1;
73565;PMS5003;61846;52.970;-3.168;2022-09-04T12:37:29;1;1;
73565;PMS5003;61846;52.970;-3.168;2022-09-04T12:39:48;4;4;
73565;PMS5003;61846;52.970;-3.168;2022-09-04T12:42:09;2;1;
73565;PMS5003;61846;52.970;-3.168;2022-09-04T12:44:36;2;1;
73565;PMS5003;61846;52.970;-3.168;2022-09-04T12:47:01;3;3;
73565;PMS5003;61846;52.970;-3.168;2022-09-04T12:49:28;3;3;
73565;PMS5003;61846;52.970;-3.168;2022-09-04T12:51:50;2;2;
73565;PMS5003;61846;52.970;-3.168;2022-09-04T12:54:19;4;2;
73565;PMS5003;61846;52.970;-3.168;2022-09-04T12:56:43;3;2;
73565;PMS5003;61846;52.970;-3.168;2022-09-04T12:59:08;4;4;
73565;PMS5003;61846;52.970;-3.168;2022-09-04T13:01:32;3;1;
73565;PMS5003;61846;52.970;-3.168;2022-09-04T13:03:56;3;3;
73565;PMS5003;61846;52.970;-3.168;2022-09-04T13:06:23;2;2;
73565;PMS5003;61846;52.970;-3.168;2022-09-04T13:08:48;2;2;
73565;PMS5003;61846;52.970;-3.168;2022-09-04T13:11:15;2;2;
73565;PMS5003;61846;52.970;-3.168;2022-09-04T13:13:39;3;3;
73565;PMS5003;61846;52.970;-3.168;2022-09-04T13:16:02;2;2;
73565;PMS5003;61846;52.970;-3.168;2022-09-04T13:18:30;6;6;
73565;PMS5003;61846;52.970;-3.168;2022-09-04T13:20:54;6;5;
73565;PMS5003;61846;52.970;-3.168;2022-09-04T13:23:22;2;2;
73565;PMS5003;61846;52.970;-3.168;2022-09-04T13:25:46;3;3;
73565;PMS5003;61846;52.970;-3.168;2022-09-04T13:28:11;6;4;
73565;PMS5003;61846;52.970;-3.168;2022-09-04T13:30:34;2;2;
73565;PMS5003;61846;52.970;-3.168;2022-09-04T13:33:05;6;3;
73565;PMS5003;61846;52.970;-3.168;2022-09-04T13:35:30;3;2;
73565;PMS5003;61846;52.970;-3.168;2022-09-04T13:37:55;3;3;
73565;PMS5003;61846;52.970;-3.168;2022-09-04T13:40:19;3;3;
73565;PMS5003;61846;52.970;-3.168;2022-09-04T13:45:06;5;5;
73565;PMS5003;61846;52.970;-3.168;2022-09-04T13:47:35;2;2;
73565;PMS5003;61846;52.970;-3.168;2022-09-04T13:49:57;4;3;
73565;PMS5003;61846;52.970;-3.168;2022-09-04T13:52:23;8;1;
73565;PMS5003;61846;52.970;-3.168;2022-09-04T13:54:48;1;1;
73565;PMS5003;61846;52.970;-3.168;2022-09-04T13:57:13;3;2;
73565;PMS5003;61846;52.970;-3.168;2022-09-04T13:59:37;1;1;
73565;PMS5003;61846;52.970;-3.168;2022-09-04T14:02:04;3;3;
73565;PMS5003;61846;52.970;-3.168;2022-09-04T14:04:28;3;1;
73565;PMS5003;61846;52.970;-3.168;2022-09-04T14:06:54;2;2;
73565;PMS5003;61846;52.970;-3.168;2022-09-04T14:09:18;4;2;
73565;PMS5003;61846;52.970;-3.168;2022-09-04T14:11:57;3;2;
73565;PMS5003;61846;52.970;-3.168;2022-09-04T14:14:18;2;2;
73565;PMS5003;61846;52.970;-3.168;2022-09-04T14:16:34;3;3;
73565;PMS5003;61846;52.970;-3.168;2022-09-04T14:19:02;1;1;
73565;PMS5003;61846;52.970;-3.168;2022-09-04T14:21:29;4;4;
73565;PMS5003;61846;52.970;-3.168;2022-09-04T14:23:52;2;2;
73565;PMS5003;61846;52.970;-3.168;2022-09-04T14:26:18;2;2;
73565;PMS5003;61846;52.970;-3.168;2022-09-04T14:28:42;3;1;
73565;PMS5003;61846;52.970;-3.168;2022-09-04T14:31:08;1;1;
73565;PMS5003;61846;52.970;-3.168;2022-09-04T14:33:32;0;0;
73565;PMS5003;61846;52.970;-3.168;2022-09-04T14:35:59;1;1;
73565;PMS5003;61846;52.970;-3.168;2022-09-04T14:38:28;2;2;
73565;PMS5003;61846;52.970;-3.168;2022-09-04T14:40:50;1;1;
73565;PMS5003;61846;52.970;-3.168;2022-09-04T14:43:13;2;2;
73565;PMS5003;61846;52.970;-3.168;2022-09-04T14:48:03;0;0;
73565;PMS5003;61846;52.970;-3.168;2022-09-04T14:50:28;1;1;
73565;PMS5003;61846;52.970;-3.168;2022-09-04T14:52:54;3;2;
73565;PMS5003;61846;52.970;-3.168;2022-09-04T14:55:22;3;1;
73565;PMS5003;61846;52.970;-3.168;2022-09-04T14:57:45;0;0;
73565;PMS5003;61846;52.970;-3.168;2022-09-04T15:00:09;2;2;
73565;PMS5003;61846;52.970;-3.168;2022-09-04T15:02:35;3;1;
73565;PMS5003;61846;52.970;-3.168;2022-09-04T15:05:00;0;0;
73565;PMS5003;61846;52.970;-3.168;2022-09-04T15:07:27;1;1;
73565;PMS5003;61846;52.970;-3.168;2022-09-04T15:09:49;0;0;
73565;PMS5003;61846;52.970;-3.168;2022-09-04T15:12:16;1;1;
73565;PMS5003;61846;52.970;-3.168;2022-09-04T15:14:40;1;1;
73565;PMS5003;61846;52.970;-3.168;2022-09-04T15:17:07;0;0;
73565;PMS5003;61846;52.970;-3.168;2022-09-04T15:19:34;2;0;
73565;PMS5003;61846;52.970;-3.168;2022-09-04T15:21:57;2;1;
73565;PMS5003;61846;52.970;-3.168;2022-09-04T15:24:22;4;1;
73565;PMS5003;61846;52.970;-3.168;2022-09-04T15:26:48;1;1;
73565;PMS5003;61846;52.970;-3.168;2022-09-04T15:29:13;1;1;
73565;PMS5003;61846;52.970;-3.168;2022-09-04T15:31:37;1;1;
73565;PMS5003;61846;52.970;-3.168;2022-09-04T15:34:02;2;1;
73565;PMS5003;61846;52.970;-3.168;2022-09-04T15:36:27;0;0;
73565;PMS5003;61846;52.970;-3.168;2022-09-04T15:38:54;0;0;
73565;PMS5003;61846;52.970;-3.168;2022-09-04T15:41:21;0;0;
73565;PMS5003;61846;52.970;-3.168;2022-09-04T15:43:45;1;1;
73565;PMS5003;61846;52.970;-3.168;2022-09-04T15:46:10;1;1;
73565;PMS5003;61846;52.970;-3.168;2022-09-04T15:51:01;1;1;
73565;PMS5003;61846;52.970;-3.168;2022-09-04T15:53:25;0;0;
73565;PMS5003;61846;52.970;-3.168;2022-09-04T15:55:58;1;0;
73565;PMS5003;61846;52.970;-3.168;2022-09-04T15:58:17;0;0;
73565;PMS5003;61846;52.970;-3.168;2022-09-04T16:00:52;2;0;
73565;PMS5003;61846;52.970;-3.168;2022-09-04T16:03:09;1;1;
73565;PMS5003;61846;52.970;-3.168;2022-09-04T16:05:35;2;1;
73565;PMS5003;61846;52.970;-3.168;2022-09-04T16:07:57;1;1;
73565;PMS5003;61846;52.970;-3.168;2022-09-04T16:10:22;0;0;
73565;PMS5003;61846;52.970;-3.168;2022-09-04T16:12:49;1;1;
73565;PMS5003;61846;52.970;-3.168;2022-09-04T16:15:15;2;1;
73565;PMS5003;61846;52.970;-3.168;2022-09-04T16:17:39;1;1;
73565;PMS5003;61846;52.970;-3.168;2022-09-04T16:20:05;0;0;
73565;PMS5003;61846;52.970;-3.168;2022-09-04T16:22:31;2;2;
73565;PMS5003;61846;52.970;-3.168;2022-09-04T16:24:54;0;0;
73565;PMS5003;61846;52.970;-3.168;2022-09-04T16:27:20;2;1;
73565;PMS5003;61846;52.970;-3.168;2022-09-04T16:29:44;3;1;
73565;PMS5003;61846;52.970;-3.168;2022-09-04T16:32:09;1;1;
73565;PMS5003;61846;52.970;-3.168;2022-09-04T16:34:36;3;3;
73565;PMS5003;61846;52.970;-3.168;2022-09-04T16:37:03;0;0;
73565;PMS5003;61846;52.970;-3.168;2022-09-04T16:39:26;1;1;
73565;PMS5003;61846;52.970;-3.168;2022-09-04T16:41:51;1;1;
73565;PMS5003;61846;52.970;-3.168;2022-09-04T16:44:17;0;0;
73565;PMS5003;61846;52.970;-3.168;2022-09-04T16:46:43;4;4;
73565;PMS5003;61846;52.970;-3.168;2022-09-04T16:49:07;1;1;
73565;PMS5003;61846;52.970;-3.168;2022-09-04T16:51:32;1;1;
73565;PMS5003;61846;52.970;-3.168;2022-09-04T16:53:59;1;1;
73565;PMS5003;61846;52.970;-3.168;2022-09-04T16:56:23;3;2;
73565;PMS5003;61846;52.970;-3.168;2022-09-04T16:58:48;1;1;
73565;PMS5003;61846;52.970;-3.168;2022-09-04T17:01:13;2;2;
73565;PMS5003;61846;52.970;-3.168;2022-09-04T17:03:39;4;3;
73565;PMS5003;61846;52.970;-3.168;2022-09-04T17:06:05;4;3;
73565;PMS5003;61846;52.970;-3.168;2022-09-04T17:08:29;2;2;
73565;PMS5003;61846;52.970;-3.168;2022-09-04T17:10:54;3;3;
73565;PMS5003;61846;52.970;-3.168;2022-09-04T17:13:20;3;3;
73565;PMS5003;61846;52.970;-3.168;2022-09-04T17:15:46;2;2;
73565;PMS5003;61846;52.970;-3.168;2022-09-04T17:18:10;3;3;
73565;PMS5003;61846;52.970;-3.168;2022-09-04T17:20:36;4;2;
73565;PMS5003;61846;52.970;-3.168;2022-09-04T17:23:05;4;3;
73565;PMS5003;61846;52.970;-3.168;2022-09-04T17:25:26;3;3;
73565;PMS5003;61846;52.970;-3.168;2022-09-04T17:27:55;1;0;
73565;PMS5003;61846;52.970;-3.168;2022-09-04T17:30:22;4;4;
73565;PMS5003;61846;52.970;-3.168;2022-09-04T17:32:42;11;3;
73565;PMS5003;61846;52.970;-3.168;2022-09-04T17:35:14;4;4;
73565;PMS5003;61846;52.970;-3.168;2022-09-04T17:37:34;13;6;
73565;PMS5003;61846;52.970;-3.168;2022-09-04T17:39:58;5;4;
73565;PMS5003;61846;52.970;-3.168;2022-09-04T17:42:23;6;4;
73565;PMS5003;61846;52.970;-3.168;2022-09-04T17:44:48;9;4;